sensor_id;sensor_type;location;lat;lon;timestamp;P1;durP1;ratioP1;P2;durP2;ratioP2
51714;SDS011;39115;59.332;18.034;2023-02-15T00:02:06;5.63;;;2.65;;
51714;SDS011;39115;59.332;18.034;2023-02-15T00:04:27;9.43;;;2.70;;
51714;SDS011;39115;59.332;18.034;2023-02-15T00:07:10;7.28;;;2.50;;
51714;SDS011;39115;59.332;18.034;2023-02-15T00:09:31;4.85;;;2.70;;
51714;SDS011;39115;59.332;18.034;2023-02-15T00:11:51;6.80;;;2.40;;
51714;SDS011;39115;59.332;18.034;2023-02-15T00:14:13;7.65;;;2.53;;
51714;SDS011;39115;59.332;18.034;2023-02-15T00:16:36;3.70;;;2.30;;
51714;SDS011;39115;59.332;18.034;2023-02-15T00:18:58;3.25;;;2.08;;
51714;SDS011;39115;59.332;18.034;2023-02-15T00:21:21;6.85;;;2.60;;
51714;SDS011;39115;59.332;18.034;2023-02-15T00:23:42;6.18;;;2.67;;
51714;SDS011;39115;59.332;18.034;2023-02-15T00:26:03;6.45;;;2.58;;
51714;SDS011;39115;59.332;18.034;2023-02-15T00:28:25;5.13;;;2.85;;
51714;SDS011;39115;59.332;18.034;2023-02-15T00:30:46;7.00;;;2.15;;
51714;SDS011;39115;59.332;18.034;2023-02-15T00:33:06;8.48;;;2.78;;
51714;SDS011;39115;59.332;18.034;2023-02-15T00:35:27;6.97;;;2.58;;
51714;SDS011;39115;59.332;18.034;2023-02-15T00:37:47;5.80;;;2.50;;
51714;SDS011;39115;59.332;18.034;2023-02-15T00:40:09;8.18;;;1.88;;
51714;SDS011;39115;59.332;18.034;2023-02-15T00:42:29;4.85;;;2.15;;
51714;SDS011;39115;59.332;18.034;2023-02-15T00:44:50;6.72;;;2.45;;
51714;SDS011;39115;59.332;18.034;2023-02-15T00:47:11;7.20;;;2.78;;
51714;SDS011;39115;59.332;18.034;2023-02-15T00:49:31;9.00;;;2.80;;
51714;SDS011;39115;59.332;18.034;2023-02-15T00:51:52;7.07;;;2.60;;
51714;SDS011;39115;59.332;18.034;2023-02-15T00:54:12;5.55;;;2.88;;
51714;SDS011;39115;59.332;18.034;2023-02-15T00:56:33;6.05;;;2.22;;
51714;SDS011;39115;59.332;18.034;2023-02-15T00:58:53;4.47;;;2.63;;
51714;SDS011;39115;59.332;18.034;2023-02-15T01:01:16;11.05;;;2.50;;
51714;SDS011;39115;59.332;18.034;2023-02-15T01:03:40;5.80;;;2.08;;
51714;SDS011;39115;59.332;18.034;2023-02-15T01:06:04;4.05;;;2.10;;
51714;SDS011;39115;59.332;18.034;2023-02-15T01:08:24;9.65;;;3.08;;
51714;SDS011;39115;59.332;18.034;2023-02-15T01:10:45;4.03;;;2.13;;
51714;SDS011;39115;59.332;18.034;2023-02-15T01:13:07;4.00;;;1.90;;
51714;SDS011;39115;59.332;18.034;2023-02-15T01:15:27;6.10;;;1.95;;
51714;SDS011;39115;59.332;18.034;2023-02-15T01:17:48;6.72;;;2.35;;
51714;SDS011;39115;59.332;18.034;2023-02-15T01:20:12;4.13;;;1.85;;
51714;SDS011;39115;59.332;18.034;2023-02-15T01:22:35;3.50;;;1.90;;
51714;SDS011;39115;59.332;18.034;2023-02-15T01:24:55;5.70;;;2.28;;
51714;SDS011;39115;59.332;18.034;2023-02-15T01:27:16;3.70;;;2.33;;
51714;SDS011;39115;59.332;18.034;2023-02-15T01:29:36;5.13;;;2.67;;
51714;SDS011;39115;59.332;18.034;2023-02-15T01:31:56;6.60;;;2.50;;
51714;SDS011;39115;59.332;18.034;2023-02-15T01:34:17;8.65;;;2.53;;
51714;SDS011;39115;59.332;18.034;2023-02-15T01:36:37;8.07;;;2.10;;
51714;SDS011;39115;59.332;18.034;2023-02-15T01:38:58;4.20;;;2.38;;
51714;SDS011;39115;59.332;18.034;2023-02-15T01:41:18;11.05;;;2.58;;
51714;SDS011;39115;59.332;18.034;2023-02-15T01:46:47;7.25;;;2.78;;
51714;SDS011;39115;59.332;18.034;2023-02-15T01:49:13;5.63;;;1.92;;
51714;SDS011;39115;59.332;18.034;2023-02-15T01:51:36;6.72;;;2.40;;
51714;SDS011;39115;59.332;18.034;2023-02-15T01:54:02;6.18;;;2.00;;
51714;SDS011;39115;59.332;18.034;2023-02-15T01:56:31;3.92;;;2.28;;
51714;SDS011;39115;59.332;18.034;2023-02-15T01:58:55;4.50;;;2.22;;
51714;SDS011;39115;59.332;18.034;2023-02-15T02:01:18;8.07;;;2.60;;
51714;SDS011;39115;59.332;18.034;2023-02-15T02:06:18;7.90;;;2.50;;
51714;SDS011;39115;59.332;18.034;2023-02-15T02:08:41;8.23;;;2.85;;
51714;SDS011;39115;59.332;18.034;2023-02-15T02:11:04;5.80;;;2.33;;
51714;SDS011;39115;59.332;18.034;2023-02-15T02:13:32;6.03;;;2.65;;
51714;SDS011;39115;59.332;18.034;2023-02-15T02:24:08;8.10;;;2.80;;
51714;SDS011;39115;59.332;18.034;2023-02-15T02:34:48;4.00;;;2.10;;
51714;SDS011;39115;59.332;18.034;2023-02-15T02:37:29;8.20;;;2.83;;
51714;SDS011;39115;59.332;18.034;2023-02-15T02:47:30;7.18;;;3.17;;
51714;SDS011;39115;59.332;18.034;2023-02-15T02:49:59;9.48;;;3.28;;
51714;SDS011;39115;59.332;18.034;2023-02-15T02:55:03;4.30;;;2.25;;
51714;SDS011;39115;59.332;18.034;2023-02-15T02:57:28;5.65;;;2.92;;
51714;SDS011;39115;59.332;18.034;2023-02-15T02:59:51;8.60;;;3.25;;
51714;SDS011;39115;59.332;18.034;2023-02-15T03:02:16;7.63;;;3.00;;
51714;SDS011;39115;59.332;18.034;2023-02-15T03:04:44;5.30;;;2.67;;
51714;SDS011;39115;59.332;18.034;2023-02-15T03:07:12;7.25;;;2.92;;
51714;SDS011;39115;59.332;18.034;2023-02-15T03:09:42;5.88;;;2.90;;
51714;SDS011;39115;59.332;18.034;2023-02-15T03:12:13;7.18;;;2.95;;
51714;SDS011;39115;59.332;18.034;2023-02-15T03:14:40;7.00;;;2.92;;
51714;SDS011;39115;59.332;18.034;2023-02-15T03:17:03;8.73;;;3.72;;
51714;SDS011;39115;59.332;18.034;2023-02-15T03:19:27;5.35;;;2.58;;
51714;SDS011;39115;59.332;18.034;2023-02-15T03:21:56;7.05;;;3.55;;
51714;SDS011;39115;59.332;18.034;2023-02-15T03:24:34;7.93;;;3.40;;
51714;SDS011;39115;59.332;18.034;2023-02-15T03:26:57;6.63;;;3.08;;
51714;SDS011;39115;59.332;18.034;2023-02-15T03:29:20;4.88;;;3.10;;
51714;SDS011;39115;59.332;18.034;2023-02-15T03:31:44;4.75;;;2.88;;
51714;SDS011;39115;59.332;18.034;2023-02-15T03:34:09;13.25;;;3.50;;
51714;SDS011;39115;59.332;18.034;2023-02-15T03:39:33;7.72;;;3.70;;
51714;SDS011;39115;59.332;18.034;2023-02-15T03:42:01;9.07;;;3.97;;
51714;SDS011;39115;59.332;18.034;2023-02-15T03:44:30;11.00;;;4.22;;
51714;SDS011;39115;59.332;18.034;2023-02-15T03:47:02;8.38;;;3.80;;
51714;SDS011;39115;59.332;18.034;2023-02-15T03:49:28;8.85;;;3.33;;
51714;SDS011;39115;59.332;18.034;2023-02-15T03:51:57;9.65;;;4.47;;
51714;SDS011;39115;59.332;18.034;2023-02-15T03:54:27;8.07;;;3.85;;
51714;SDS011;39115;59.332;18.034;2023-02-15T03:57:09;8.68;;;4.05;;
51714;SDS011;39115;59.332;18.034;2023-02-15T03:59:53;9.73;;;4.25;;
51714;SDS011;39115;59.332;18.034;2023-02-15T04:02:45;10.07;;;4.03;;
51714;SDS011;39115;59.332;18.034;2023-02-15T04:05:08;8.18;;;4.18;;
51714;SDS011;39115;59.332;18.034;2023-02-15T04:07:28;10.13;;;4.47;;
51714;SDS011;39115;59.332;18.034;2023-02-15T04:09:49;10.82;;;5.10;;
51714;SDS011;39115;59.332;18.034;2023-02-15T04:12:28;9.60;;;4.97;;
51714;SDS011;39115;59.332;18.034;2023-02-15T04:14:48;11.35;;;5.35;;
51714;SDS011;39115;59.332;18.034;2023-02-15T04:17:28;10.63;;;5.72;;
51714;SDS011;39115;59.332;18.034;2023-02-15T04:19:48;12.50;;;5.20;;
51714;SDS011;39115;59.332;18.034;2023-02-15T04:22:27;11.00;;;4.88;;
51714;SDS011;39115;59.332;18.034;2023-02-15T04:25:06;11.13;;;6.25;;
51714;SDS011;39115;59.332;18.034;2023-02-15T04:27:30;13.32;;;6.38;;
51714;SDS011;39115;59.332;18.034;2023-02-15T04:29:51;12.15;;;5.80;;
51714;SDS011;39115;59.332;18.034;2023-02-15T04:32:11;16.90;;;5.82;;
51714;SDS011;39115;59.332;18.034;2023-02-15T04:34:32;12.10;;;5.72;;
51714;SDS011;39115;59.332;18.034;2023-02-15T04:36:52;9.82;;;5.45;;
51714;SDS011;39115;59.332;18.034;2023-02-15T04:39:13;15.52;;;6.00;;
51714;SDS011;39115;59.332;18.034;2023-02-15T04:41:34;14.00;;;6.05;;
51714;SDS011;39115;59.332;18.034;2023-02-15T04:43:55;15.77;;;7.22;;
51714;SDS011;39115;59.332;18.034;2023-02-15T04:46:16;12.15;;;5.78;;
51714;SDS011;39115;59.332;18.034;2023-02-15T04:48:37;12.93;;;5.78;;
51714;SDS011;39115;59.332;18.034;2023-02-15T04:50:57;12.32;;;6.25;;
51714;SDS011;39115;59.332;18.034;2023-02-15T04:53:18;10.30;;;5.07;;
51714;SDS011;39115;59.332;18.034;2023-02-15T04:55:38;13.95;;;6.40;;
51714;SDS011;39115;59.332;18.034;2023-02-15T04:57:59;12.10;;;5.60;;
51714;SDS011;39115;59.332;18.034;2023-02-15T05:00:19;10.85;;;5.63;;
51714;SDS011;39115;59.332;18.034;2023-02-15T05:02:40;18.05;;;7.03;;
51714;SDS011;39115;59.332;18.034;2023-02-15T05:05:00;12.63;;;6.65;;
51714;SDS011;39115;59.332;18.034;2023-02-15T05:07:22;13.20;;;6.22;;
51714;SDS011;39115;59.332;18.034;2023-02-15T05:09:42;12.90;;;6.55;;
51714;SDS011;39115;59.332;18.034;2023-02-15T05:12:03;13.15;;;6.45;;
51714;SDS011;39115;59.332;18.034;2023-02-15T05:14:24;11.55;;;6.00;;
51714;SDS011;39115;59.332;18.034;2023-02-15T05:16:44;10.60;;;5.57;;
51714;SDS011;39115;59.332;18.034;2023-02-15T05:19:05;12.13;;;6.28;;
51714;SDS011;39115;59.332;18.034;2023-02-15T05:21:26;14.55;;;6.45;;
51714;SDS011;39115;59.332;18.034;2023-02-15T05:23:46;12.82;;;6.35;;
51714;SDS011;39115;59.332;18.034;2023-02-15T05:26:15;12.30;;;6.22;;
51714;SDS011;39115;59.332;18.034;2023-02-15T05:28:57;14.25;;;6.85;;
51714;SDS011;39115;59.332;18.034;2023-02-15T05:31:17;14.23;;;6.45;;
51714;SDS011;39115;59.332;18.034;2023-02-15T05:33:39;11.52;;;6.03;;
51714;SDS011;39115;59.332;18.034;2023-02-15T05:36:00;13.93;;;7.47;;
51714;SDS011;39115;59.332;18.034;2023-02-15T05:38:22;14.05;;;6.95;;
51714;SDS011;39115;59.332;18.034;2023-02-15T05:40:43;15.60;;;7.53;;
51714;SDS011;39115;59.332;18.034;2023-02-15T05:43:03;14.52;;;6.18;;
51714;SDS011;39115;59.332;18.034;2023-02-15T05:45:24;12.55;;;6.15;;
51714;SDS011;39115;59.332;18.034;2023-02-15T05:47:45;12.38;;;6.43;;
51714;SDS011;39115;59.332;18.034;2023-02-15T05:50:06;12.05;;;6.43;;
51714;SDS011;39115;59.332;18.034;2023-02-15T05:52:27;18.38;;;7.65;;
51714;SDS011;39115;59.332;18.034;2023-02-15T05:54:48;13.57;;;7.32;;
51714;SDS011;39115;59.332;18.034;2023-02-15T05:57:08;15.93;;;7.22;;
51714;SDS011;39115;59.332;18.034;2023-02-15T05:59:29;17.13;;;6.72;;
51714;SDS011;39115;59.332;18.034;2023-02-15T06:01:49;11.82;;;6.32;;
51714;SDS011;39115;59.332;18.034;2023-02-15T06:04:10;12.07;;;6.47;;
51714;SDS011;39115;59.332;18.034;2023-02-15T06:06:30;12.68;;;6.95;;
51714;SDS011;39115;59.332;18.034;2023-02-15T06:08:51;16.58;;;7.32;;
51714;SDS011;39115;59.332;18.034;2023-02-15T06:11:11;13.50;;;6.60;;
51714;SDS011;39115;59.332;18.034;2023-02-15T06:13:32;13.10;;;6.93;;
51714;SDS011;39115;59.332;18.034;2023-02-15T06:15:53;12.65;;;6.57;;
51714;SDS011;39115;59.332;18.034;2023-02-15T06:18:13;15.88;;;6.78;;
51714;SDS011;39115;59.332;18.034;2023-02-15T06:20:34;15.63;;;7.32;;
51714;SDS011;39115;59.332;18.034;2023-02-15T06:22:54;17.13;;;8.13;;
51714;SDS011;39115;59.332;18.034;2023-02-15T06:25:15;12.80;;;6.90;;
51714;SDS011;39115;59.332;18.034;2023-02-15T06:27:36;14.85;;;7.00;;
51714;SDS011;39115;59.332;18.034;2023-02-15T06:29:56;15.68;;;6.93;;
51714;SDS011;39115;59.332;18.034;2023-02-15T06:32:17;14.57;;;7.57;;
51714;SDS011;39115;59.332;18.034;2023-02-15T06:34:37;15.07;;;6.53;;
51714;SDS011;39115;59.332;18.034;2023-02-15T06:36:58;14.82;;;6.47;;
51714;SDS011;39115;59.332;18.034;2023-02-15T06:39:18;12.75;;;6.75;;
51714;SDS011;39115;59.332;18.034;2023-02-15T06:41:39;15.57;;;7.10;;
51714;SDS011;39115;59.332;18.034;2023-02-15T06:43:59;14.40;;;7.30;;
51714;SDS011;39115;59.332;18.034;2023-02-15T06:46:20;13.45;;;6.90;;
51714;SDS011;39115;59.332;18.034;2023-02-15T06:48:40;16.17;;;7.03;;
51714;SDS011;39115;59.332;18.034;2023-02-15T06:51:01;14.00;;;7.47;;
51714;SDS011;39115;59.332;18.034;2023-02-15T06:53:22;16.17;;;7.53;;
51714;SDS011;39115;59.332;18.034;2023-02-15T06:55:42;13.70;;;7.05;;
51714;SDS011;39115;59.332;18.034;2023-02-15T06:58:03;13.43;;;7.45;;
51714;SDS011;39115;59.332;18.034;2023-02-15T07:00:23;13.77;;;6.18;;
51714;SDS011;39115;59.332;18.034;2023-02-15T07:02:44;12.57;;;6.05;;
51714;SDS011;39115;59.332;18.034;2023-02-15T07:05:05;10.50;;;6.25;;
51714;SDS011;39115;59.332;18.034;2023-02-15T07:07:25;12.65;;;6.32;;
51714;SDS011;39115;59.332;18.034;2023-02-15T07:09:46;13.73;;;6.72;;
51714;SDS011;39115;59.332;18.034;2023-02-15T07:12:06;12.60;;;6.75;;
51714;SDS011;39115;59.332;18.034;2023-02-15T07:14:46;14.93;;;6.25;;
51714;SDS011;39115;59.332;18.034;2023-02-15T07:17:06;13.45;;;6.75;;
51714;SDS011;39115;59.332;18.034;2023-02-15T07:19:27;12.07;;;6.03;;
51714;SDS011;39115;59.332;18.034;2023-02-15T07:21:47;13.13;;;6.45;;
51714;SDS011;39115;59.332;18.034;2023-02-15T07:24:08;10.88;;;6.15;;
51714;SDS011;39115;59.332;18.034;2023-02-15T07:26:29;13.00;;;5.60;;
51714;SDS011;39115;59.332;18.034;2023-02-15T07:28:51;11.68;;;6.25;;
51714;SDS011;39115;59.332;18.034;2023-02-15T07:31:12;11.15;;;6.22;;
51714;SDS011;39115;59.332;18.034;2023-02-15T07:33:33;13.23;;;6.78;;
51714;SDS011;39115;59.332;18.034;2023-02-15T07:35:55;12.63;;;6.05;;
51714;SDS011;39115;59.332;18.034;2023-02-15T07:38:18;13.55;;;6.75;;
51714;SDS011;39115;59.332;18.034;2023-02-15T07:40:38;8.68;;;5.00;;
51714;SDS011;39115;59.332;18.034;2023-02-15T07:42:59;14.13;;;6.47;;
51714;SDS011;39115;59.332;18.034;2023-02-15T07:45:20;11.30;;;5.93;;
51714;SDS011;39115;59.332;18.034;2023-02-15T07:47:41;10.85;;;5.40;;
51714;SDS011;39115;59.332;18.034;2023-02-15T07:50:01;11.52;;;5.68;;
51714;SDS011;39115;59.332;18.034;2023-02-15T07:52:22;11.85;;;5.18;;
51714;SDS011;39115;59.332;18.034;2023-02-15T07:54:43;10.10;;;4.82;;
51714;SDS011;39115;59.332;18.034;2023-02-15T07:57:03;13.32;;;5.60;;
51714;SDS011;39115;59.332;18.034;2023-02-15T07:59:24;12.43;;;5.53;;
51714;SDS011;39115;59.332;18.034;2023-02-15T08:01:45;10.48;;;5.57;;
51714;SDS011;39115;59.332;18.034;2023-02-15T08:04:06;11.43;;;5.57;;
51714;SDS011;39115;59.332;18.034;2023-02-15T08:06:30;11.02;;;5.57;;
51714;SDS011;39115;59.332;18.034;2023-02-15T08:08:53;13.05;;;5.82;;
51714;SDS011;39115;59.332;18.034;2023-02-15T08:11:15;11.75;;;5.18;;
51714;SDS011;39115;59.332;18.034;2023-02-15T08:13:53;9.40;;;5.22;;
51714;SDS011;39115;59.332;18.034;2023-02-15T08:16:21;15.27;;;5.28;;
51714;SDS011;39115;59.332;18.034;2023-02-15T08:18:46;10.73;;;4.30;;
51714;SDS011;39115;59.332;18.034;2023-02-15T08:21:07;12.65;;;5.03;;
51714;SDS011;39115;59.332;18.034;2023-02-15T08:23:28;8.43;;;4.93;;
51714;SDS011;39115;59.332;18.034;2023-02-15T08:25:49;10.18;;;5.28;;
51714;SDS011;39115;59.332;18.034;2023-02-15T08:28:09;10.80;;;5.25;;
51714;SDS011;39115;59.332;18.034;2023-02-15T08:30:30;9.20;;;5.68;;
51714;SDS011;39115;59.332;18.034;2023-02-15T08:32:50;11.30;;;5.53;;
51714;SDS011;39115;59.332;18.034;2023-02-15T08:35:11;9.98;;;5.47;;
51714;SDS011;39115;59.332;18.034;2023-02-15T08:37:32;8.90;;;4.30;;
51714;SDS011;39115;59.332;18.034;2023-02-15T08:39:52;9.75;;;4.38;;
51714;SDS011;39115;59.332;18.034;2023-02-15T08:42:13;5.70;;;3.50;;
51714;SDS011;39115;59.332;18.034;2023-02-15T08:44:33;9.18;;;4.55;;
51714;SDS011;39115;59.332;18.034;2023-02-15T08:46:54;10.00;;;4.43;;
51714;SDS011;39115;59.332;18.034;2023-02-15T08:49:16;11.20;;;5.30;;
51714;SDS011;39115;59.332;18.034;2023-02-15T08:51:39;8.35;;;4.75;;
51714;SDS011;39115;59.332;18.034;2023-02-15T08:54:01;8.07;;;4.68;;
51714;SDS011;39115;59.332;18.034;2023-02-15T08:56:27;10.80;;;4.60;;
51714;SDS011;39115;59.332;18.034;2023-02-15T09:01:11;7.90;;;4.07;;
51714;SDS011;39115;59.332;18.034;2023-02-15T09:03:33;9.48;;;4.88;;
51714;SDS011;39115;59.332;18.034;2023-02-15T09:05:58;8.35;;;4.75;;
51714;SDS011;39115;59.332;18.034;2023-02-15T09:08:19;10.68;;;4.38;;
51714;SDS011;39115;59.332;18.034;2023-02-15T09:10:40;8.88;;;4.28;;
51714;SDS011;39115;59.332;18.034;2023-02-15T09:13:00;8.93;;;4.45;;
51714;SDS011;39115;59.332;18.034;2023-02-15T09:15:21;7.55;;;4.00;;
51714;SDS011;39115;59.332;18.034;2023-02-15T09:17:41;10.35;;;4.85;;
51714;SDS011;39115;59.332;18.034;2023-02-15T09:20:02;10.65;;;4.95;;
51714;SDS011;39115;59.332;18.034;2023-02-15T09:22:23;6.93;;;3.90;;
51714;SDS011;39115;59.332;18.034;2023-02-15T09:24:43;8.25;;;4.00;;
51714;SDS011;39115;59.332;18.034;2023-02-15T09:27:04;10.57;;;4.68;;
51714;SDS011;39115;59.332;18.034;2023-02-15T09:29:25;9.63;;;4.72;;
51714;SDS011;39115;59.332;18.034;2023-02-15T09:31:46;9.95;;;4.47;;
51714;SDS011;39115;59.332;18.034;2023-02-15T09:34:08;8.65;;;4.45;;
51714;SDS011;39115;59.332;18.034;2023-02-15T09:36:31;6.63;;;3.55;;
51714;SDS011;39115;59.332;18.034;2023-02-15T09:38:58;8.40;;;4.00;;
51714;SDS011;39115;59.332;18.034;2023-02-15T09:44:22;7.93;;;3.88;;
51714;SDS011;39115;59.332;18.034;2023-02-15T09:47:12;7.40;;;3.85;;
51714;SDS011;39115;59.332;18.034;2023-02-15T10:00:27;6.32;;;3.85;;
51714;SDS011;39115;59.332;18.034;2023-02-15T10:03:03;6.68;;;3.38;;
51714;SDS011;39115;59.332;18.034;2023-02-15T10:05:57;6.97;;;3.60;;
51714;SDS011;39115;59.332;18.034;2023-02-15T10:09:14;6.18;;;3.17;;
51714;SDS011;39115;59.332;18.034;2023-02-15T10:11:38;7.35;;;3.53;;
51714;SDS011;39115;59.332;18.034;2023-02-15T10:27:34;6.68;;;3.53;;
51714;SDS011;39115;59.332;18.034;2023-02-15T10:30:09;7.90;;;3.30;;
51714;SDS011;39115;59.332;18.034;2023-02-15T10:32:31;7.93;;;3.97;;
51714;SDS011;39115;59.332;18.034;2023-02-15T10:38:18;6.47;;;3.60;;
51714;SDS011;39115;59.332;18.034;2023-02-15T10:41:24;9.55;;;4.07;;
51714;SDS011;39115;59.332;18.034;2023-02-15T10:43:48;9.02;;;4.57;;
51714;SDS011;39115;59.332;18.034;2023-02-15T10:46:13;6.90;;;3.67;;
51714;SDS011;39115;59.332;18.034;2023-02-15T11:06:37;11.38;;;4.88;;
51714;SDS011;39115;59.332;18.034;2023-02-15T11:09:08;11.57;;;5.55;;
51714;SDS011;39115;59.332;18.034;2023-02-15T11:11:34;9.85;;;4.72;;
51714;SDS011;39115;59.332;18.034;2023-02-15T11:14:05;9.13;;;4.75;;
51714;SDS011;39115;59.332;18.034;2023-02-15T11:16:45;9.40;;;4.93;;
51714;SDS011;39115;59.332;18.034;2023-02-15T11:19:13;11.30;;;4.93;;
51714;SDS011;39115;59.332;18.034;2023-02-15T11:21:49;12.10;;;5.43;;
51714;SDS011;39115;59.332;18.034;2023-02-15T11:24:14;14.32;;;6.13;;
51714;SDS011;39115;59.332;18.034;2023-02-15T11:26:57;12.05;;;5.18;;
51714;SDS011;39115;59.332;18.034;2023-02-15T11:31:57;11.52;;;5.50;;
51714;SDS011;39115;59.332;18.034;2023-02-15T11:36:45;14.27;;;5.35;;
51714;SDS011;39115;59.332;18.034;2023-02-15T11:39:14;10.57;;;5.55;;
51714;SDS011;39115;59.332;18.034;2023-02-15T11:41:37;10.45;;;5.18;;
51714;SDS011;39115;59.332;18.034;2023-02-15T11:44:23;12.70;;;5.13;;
51714;SDS011;39115;59.332;18.034;2023-02-15T11:46:46;11.68;;;5.45;;
51714;SDS011;39115;59.332;18.034;2023-02-15T11:51:43;9.85;;;5.30;;
51714;SDS011;39115;59.332;18.034;2023-02-15T11:54:03;13.23;;;5.85;;
51714;SDS011;39115;59.332;18.034;2023-02-15T11:56:24;12.90;;;5.30;;
51714;SDS011;39115;59.332;18.034;2023-02-15T12:01:17;10.95;;;5.30;;
51714;SDS011;39115;59.332;18.034;2023-02-15T12:08:45;10.60;;;4.85;;
51714;SDS011;39115;59.332;18.034;2023-02-15T12:14:08;16.05;;;6.15;;
51714;SDS011;39115;59.332;18.034;2023-02-15T12:16:31;11.50;;;5.10;;
51714;SDS011;39115;59.332;18.034;2023-02-15T12:19:00;11.13;;;4.97;;
51714;SDS011;39115;59.332;18.034;2023-02-15T12:21:26;9.10;;;5.00;;
51714;SDS011;39115;59.332;18.034;2023-02-15T12:23:50;13.15;;;5.18;;
51714;SDS011;39115;59.332;18.034;2023-02-15T12:26:13;11.85;;;5.57;;
51714;SDS011;39115;59.332;18.034;2023-02-15T12:28:43;15.27;;;5.85;;
51714;SDS011;39115;59.332;18.034;2023-02-15T12:31:31;13.80;;;6.60;;
51714;SDS011;39115;59.332;18.034;2023-02-15T12:33:57;12.48;;;5.75;;
51714;SDS011;39115;59.332;18.034;2023-02-15T12:36:22;13.45;;;5.88;;
51714;SDS011;39115;59.332;18.034;2023-02-15T12:41:38;13.55;;;4.80;;
51714;SDS011;39115;59.332;18.034;2023-02-15T12:44:15;18.35;;;6.53;;
51714;SDS011;39115;59.332;18.034;2023-02-15T12:46:48;13.63;;;5.97;;
51714;SDS011;39115;59.332;18.034;2023-02-15T12:49:18;17.05;;;7.50;;
51714;SDS011;39115;59.332;18.034;2023-02-15T12:51:50;11.68;;;5.90;;
51714;SDS011;39115;59.332;18.034;2023-02-15T12:54:17;13.18;;;6.05;;
51714;SDS011;39115;59.332;18.034;2023-02-15T12:56:50;14.02;;;5.88;;
51714;SDS011;39115;59.332;18.034;2023-02-15T12:59:12;13.68;;;6.15;;
51714;SDS011;39115;59.332;18.034;2023-02-15T13:01:35;15.32;;;6.07;;
51714;SDS011;39115;59.332;18.034;2023-02-15T13:04:04;13.60;;;5.43;;
51714;SDS011;39115;59.332;18.034;2023-02-15T13:06:34;14.60;;;6.03;;
51714;SDS011;39115;59.332;18.034;2023-02-15T13:09:06;13.48;;;5.93;;
51714;SDS011;39115;59.332;18.034;2023-02-15T13:11:39;12.77;;;6.30;;
51714;SDS011;39115;59.332;18.034;2023-02-15T13:14:07;13.98;;;6.25;;
51714;SDS011;39115;59.332;18.034;2023-02-15T13:16:40;14.48;;;6.32;;
51714;SDS011;39115;59.332;18.034;2023-02-15T13:19:13;13.30;;;6.13;;
51714;SDS011;39115;59.332;18.034;2023-02-15T13:21:36;14.48;;;5.50;;
51714;SDS011;39115;59.332;18.034;2023-02-15T13:24:01;11.57;;;5.40;;
51714;SDS011;39115;59.332;18.034;2023-02-15T13:26:26;13.10;;;6.47;;
51714;SDS011;39115;59.332;18.034;2023-02-15T13:28:54;14.27;;;5.78;;
51714;SDS011;39115;59.332;18.034;2023-02-15T13:31:19;15.82;;;5.50;;
51714;SDS011;39115;59.332;18.034;2023-02-15T13:33:50;14.25;;;6.65;;
51714;SDS011;39115;59.332;18.034;2023-02-15T13:36:17;11.07;;;5.57;;
51714;SDS011;39115;59.332;18.034;2023-02-15T14:05:20;15.60;;;6.00;;
51714;SDS011;39115;59.332;18.034;2023-02-15T14:13:47;18.20;;;6.15;;
51714;SDS011;39115;59.332;18.034;2023-02-15T14:21:03;11.82;;;5.18;;
51714;SDS011;39115;59.332;18.034;2023-02-15T14:23:38;13.98;;;5.82;;
51714;SDS011;39115;59.332;18.034;2023-02-15T14:29:10;12.73;;;4.95;;
51714;SDS011;39115;59.332;18.034;2023-02-15T14:31:47;13.60;;;5.30;;
51714;SDS011;39115;59.332;18.034;2023-02-15T14:34:19;15.18;;;5.40;;
51714;SDS011;39115;59.332;18.034;2023-02-15T14:36:44;12.27;;;5.18;;
51714;SDS011;39115;59.332;18.034;2023-02-15T14:45:05;12.15;;;5.95;;
51714;SDS011;39115;59.332;18.034;2023-02-15T14:47:38;12.10;;;5.07;;
51714;SDS011;39115;59.332;18.034;2023-02-15T14:53:14;13.13;;;4.57;;
51714;SDS011;39115;59.332;18.034;2023-02-15T14:55:35;13.68;;;4.75;;
51714;SDS011;39115;59.332;18.034;2023-02-15T14:57:56;11.55;;;5.32;;
51714;SDS011;39115;59.332;18.034;2023-02-15T15:00:29;9.15;;;4.22;;
51714;SDS011;39115;59.332;18.034;2023-02-15T15:02:53;11.65;;;4.88;;
51714;SDS011;39115;59.332;18.034;2023-02-15T15:07:41;13.98;;;5.00;;
51714;SDS011;39115;59.332;18.034;2023-02-15T15:12:37;12.73;;;4.50;;
51714;SDS011;39115;59.332;18.034;2023-02-15T15:14:59;10.68;;;4.57;;
51714;SDS011;39115;59.332;18.034;2023-02-15T15:19:59;11.63;;;4.10;;
51714;SDS011;39115;59.332;18.034;2023-02-15T15:22:22;14.25;;;4.57;;
51714;SDS011;39115;59.332;18.034;2023-02-15T15:30:00;9.95;;;4.35;;
51714;SDS011;39115;59.332;18.034;2023-02-15T15:32:22;9.68;;;3.75;;
51714;SDS011;39115;59.332;18.034;2023-02-15T15:34:52;7.35;;;3.22;;
51714;SDS011;39115;59.332;18.034;2023-02-15T15:50:48;10.70;;;4.55;;
51714;SDS011;39115;59.332;18.034;2023-02-15T15:53:23;9.15;;;3.90;;
51714;SDS011;39115;59.332;18.034;2023-02-15T15:55:47;7.40;;;3.28;;
51714;SDS011;39115;59.332;18.034;2023-02-15T15:58:10;11.20;;;4.25;;
51714;SDS011;39115;59.332;18.034;2023-02-15T16:00:37;12.68;;;3.85;;
51714;SDS011;39115;59.332;18.034;2023-02-15T16:03:14;9.55;;;3.83;;
51714;SDS011;39115;59.332;18.034;2023-02-15T16:05:39;10.50;;;3.95;;
51714;SDS011;39115;59.332;18.034;2023-02-15T16:08:00;8.25;;;3.28;;
51714;SDS011;39115;59.332;18.034;2023-02-15T16:10:24;11.55;;;3.85;;
51714;SDS011;39115;59.332;18.034;2023-02-15T16:12:47;8.75;;;3.70;;
51714;SDS011;39115;59.332;18.034;2023-02-15T16:15:21;6.00;;;3.17;;
51714;SDS011;39115;59.332;18.034;2023-02-15T16:17:52;6.00;;;3.50;;
51714;SDS011;39115;59.332;18.034;2023-02-15T16:20:25;9.02;;;3.90;;
51714;SDS011;39115;59.332;18.034;2023-02-15T16:23:24;8.80;;;4.18;;
51714;SDS011;39115;59.332;18.034;2023-02-15T16:28:32;6.75;;;3.55;;
51714;SDS011;39115;59.332;18.034;2023-02-15T16:31:06;11.32;;;4.10;;
51714;SDS011;39115;59.332;18.034;2023-02-15T16:33:36;10.95;;;4.25;;
51714;SDS011;39115;59.332;18.034;2023-02-15T16:35:58;9.73;;;3.70;;
51714;SDS011;39115;59.332;18.034;2023-02-15T16:38:59;11.20;;;4.80;;
51714;SDS011;39115;59.332;18.034;2023-02-15T16:41:15;10.38;;;4.32;;
51714;SDS011;39115;59.332;18.034;2023-02-15T16:43:59;10.40;;;3.85;;
51714;SDS011;39115;59.332;18.034;2023-02-15T16:46:36;9.65;;;4.18;;
51714;SDS011;39115;59.332;18.034;2023-02-15T16:49:01;10.95;;;4.15;;
51714;SDS011;39115;59.332;18.034;2023-02-15T16:51:27;9.85;;;4.55;;
51714;SDS011;39115;59.332;18.034;2023-02-15T16:53:50;10.90;;;4.25;;
51714;SDS011;39115;59.332;18.034;2023-02-15T16:56:12;10.73;;;4.75;;
51714;SDS011;39115;59.332;18.034;2023-02-15T17:00:58;11.20;;;4.93;;
51714;SDS011;39115;59.332;18.034;2023-02-15T17:03:22;10.32;;;4.63;;
51714;SDS011;39115;59.332;18.034;2023-02-15T17:05:48;9.95;;;4.00;;
51714;SDS011;39115;59.332;18.034;2023-02-15T17:08:15;8.10;;;4.20;;
51714;SDS011;39115;59.332;18.034;2023-02-15T17:10:44;10.93;;;5.13;;
51714;SDS011;39115;59.332;18.034;2023-02-15T17:13:21;11.70;;;4.32;;
51714;SDS011;39115;59.332;18.034;2023-02-15T17:15:42;11.60;;;4.47;;
51714;SDS011;39115;59.332;18.034;2023-02-15T17:18:23;10.93;;;4.47;;
51714;SDS011;39115;59.332;18.034;2023-02-15T17:20:46;10.38;;;4.68;;
51714;SDS011;39115;59.332;18.034;2023-02-15T17:25:45;10.15;;;4.50;;